Terminal Aerodrome Forecast
Issued by NWS Los Angeles, CA

Home | Current Version | Previous Version | Text Only | Print | Product List | Glossary On
Versions: 1 2 3 4 5 6 7 8 9 10 11 12 13 14 15 16 17 18 19 20 21 22 23 24 25 26 27 28
134
FTUS46 KLOX 041125
TAFSMX
TAF
KSMX 041125Z 0412/0512 VRB03KT 4SM BR OVC003
     FM041500 VRB03KT 5SM BR OVC006
     FM041700 VRB03KT P6SM OVC010
     FM042000 26010KT P6SM BKN015 BKN150
     FM050000 26010KT P6SM BKN025 BKN150
     FM050300 30008KT P6SM OVC025
     FM050700 VRB03KT P6SM OVC025=

USA.gov is the U.S. government's official web portal to all federal, state and local government web resources and services.